createdAt,value
2022-11-24T09:42:07.497Z,58.80
2022-11-24T09:57:14.710Z,60.00
2022-11-24T10:12:31.472Z,57.70
2022-11-24T10:27:41.858Z,56.50
2022-11-24T10:42:48.900Z,55.90
2022-11-24T10:57:53.559Z,52.70
2022-11-24T11:12:58.297Z,53.00
2022-11-24T11:28:24.025Z,53.30
2022-11-24T11:43:31.465Z,54.00
2022-11-24T11:58:52.325Z,53.60
2022-11-24T12:14:12.353Z,53.10
2022-11-24T12:29:47.032Z,54.90
2022-11-24T12:45:13.151Z,54.80
2022-11-24T13:00:22.362Z,53.20
2022-11-24T13:15:45.107Z,52.50
2022-11-24T13:31:10.692Z,53.80
2022-11-24T13:46:15.481Z,53.70
2022-11-24T14:01:23.060Z,53.70
2022-11-24T14:16:28.061Z,52.90
2022-11-24T14:31:33.112Z,53.30
2022-11-24T14:46:38.165Z,53.60
2022-11-24T15:01:42.863Z,53.40
2022-11-24T15:16:47.581Z,53.30
2022-11-24T15:31:53.050Z,53.30
2022-11-24T15:46:57.889Z,53.80
2022-11-24T16:02:02.589Z,53.90
2022-11-24T16:17:07.203Z,53.70
2022-11-24T16:32:11.804Z,54.00
2022-11-24T16:47:16.633Z,54.20
2022-11-24T17:02:21.242Z,53.90
2022-11-24T17:17:25.913Z,53.60
2022-11-24T17:32:31.516Z,53.20
2022-11-24T17:47:36.078Z,52.80
2022-11-24T18:02:40.757Z,52.60
2022-11-24T18:17:45.423Z,52.80
2022-11-24T18:32:50.056Z,53.30
2022-11-24T18:47:54.646Z,53.80
2022-11-24T19:02:59.213Z,52.30
2022-11-24T19:18:03.799Z,52.20
2022-11-24T19:33:10.295Z,52.20
2022-11-24T19:48:14.895Z,52.20
2022-11-24T20:03:19.477Z,52.30
2022-11-24T20:18:25.369Z,52.40
2022-11-24T20:33:30.113Z,52.30
2022-11-24T20:48:35.358Z,52.40
2022-11-24T21:03:43.303Z,52.40
